sensor_id;sensor_type;location;lat;lon;timestamp;P1;durP1;ratioP1;P2;durP2;ratioP2
64395;SDS011;50717;53.360;6.290;2022-08-19T00:02:29;14.02;;;8.20;;
64395;SDS011;50717;53.360;6.290;2022-08-19T00:07:20;13.68;;;10.13;;
64395;SDS011;50717;53.360;6.290;2022-08-19T00:12:11;14.10;;;8.40;;
64395;SDS011;50717;53.360;6.290;2022-08-19T00:17:05;13.35;;;8.77;;
64395;SDS011;50717;53.360;6.290;2022-08-19T00:19:31;14.57;;;9.18;;
64395;SDS011;50717;53.360;6.290;2022-08-19T00:24:23;13.70;;;8.57;;
64395;SDS011;50717;53.360;6.290;2022-08-19T00:26:49;11.77;;;9.35;;
64395;SDS011;50717;53.360;6.290;2022-08-19T00:29:16;12.95;;;9.40;;
64395;SDS011;50717;53.360;6.290;2022-08-19T00:31:43;14.30;;;9.48;;
64395;SDS011;50717;53.360;6.290;2022-08-19T00:34:10;15.35;;;8.80;;
64395;SDS011;50717;53.360;6.290;2022-08-19T00:36:38;13.95;;;8.98;;
64395;SDS011;50717;53.360;6.290;2022-08-19T00:39:05;11.50;;;9.38;;
64395;SDS011;50717;53.360;6.290;2022-08-19T00:43:57;12.95;;;9.18;;
64395;SDS011;50717;53.360;6.290;2022-08-19T00:46:28;15.48;;;10.00;;
64395;SDS011;50717;53.360;6.290;2022-08-19T00:48:54;14.13;;;9.52;;
64395;SDS011;50717;53.360;6.290;2022-08-19T00:51:22;11.75;;;7.40;;
64395;SDS011;50717;53.360;6.290;2022-08-19T00:53:51;13.57;;;8.32;;
64395;SDS011;50717;53.360;6.290;2022-08-19T00:56:19;12.70;;;9.18;;
64395;SDS011;50717;53.360;6.290;2022-08-19T01:01:10;11.52;;;8.63;;
64395;SDS011;50717;53.360;6.290;2022-08-19T01:06:01;13.15;;;9.05;;
64395;SDS011;50717;53.360;6.290;2022-08-19T01:08:27;13.43;;;10.05;;
64395;SDS011;50717;53.360;6.290;2022-08-19T01:13:22;14.10;;;10.25;;
64395;SDS011;50717;53.360;6.290;2022-08-19T01:15:58;17.13;;;11.18;;
64395;SDS011;50717;53.360;6.290;2022-08-19T01:18:29;13.25;;;10.23;;
64395;SDS011;50717;53.360;6.290;2022-08-19T01:20:58;16.98;;;10.75;;
64395;SDS011;50717;53.360;6.290;2022-08-19T01:23:32;13.20;;;8.30;;
64395;SDS011;50717;53.360;6.290;2022-08-19T01:26:11;12.77;;;7.80;;
64395;SDS011;50717;53.360;6.290;2022-08-19T01:28:39;15.15;;;9.15;;
64395;SDS011;50717;53.360;6.290;2022-08-19T01:31:07;18.08;;;10.73;;
64395;SDS011;50717;53.360;6.290;2022-08-19T01:33:38;15.90;;;10.75;;
64395;SDS011;50717;53.360;6.290;2022-08-19T01:36:05;12.73;;;9.82;;
64395;SDS011;50717;53.360;6.290;2022-08-19T01:38:37;15.75;;;9.90;;
64395;SDS011;50717;53.360;6.290;2022-08-19T01:41:05;11.25;;;8.55;;
64395;SDS011;50717;53.360;6.290;2022-08-19T01:43:31;11.35;;;8.80;;
64395;SDS011;50717;53.360;6.290;2022-08-19T01:45:58;15.35;;;8.68;;
64395;SDS011;50717;53.360;6.290;2022-08-19T01:48:24;13.32;;;8.60;;
64395;SDS011;50717;53.360;6.290;2022-08-19T01:53:15;15.82;;;9.23;;
64395;SDS011;50717;53.360;6.290;2022-08-19T01:58:12;14.17;;;11.17;;
64395;SDS011;50717;53.360;6.290;2022-08-19T02:00:42;14.90;;;10.07;;
64395;SDS011;50717;53.360;6.290;2022-08-19T02:03:08;14.15;;;9.85;;
64395;SDS011;50717;53.360;6.290;2022-08-19T02:05:36;13.90;;;10.20;;
64395;SDS011;50717;53.360;6.290;2022-08-19T02:08:02;16.60;;;9.63;;
64395;SDS011;50717;53.360;6.290;2022-08-19T02:10:28;12.00;;;9.60;;
64395;SDS011;50717;53.360;6.290;2022-08-19T02:15:19;16.73;;;10.15;;
64395;SDS011;50717;53.360;6.290;2022-08-19T02:20:12;13.40;;;9.57;;
64395;SDS011;50717;53.360;6.290;2022-08-19T02:22:39;19.38;;;11.57;;
64395;SDS011;50717;53.360;6.290;2022-08-19T02:25:07;14.27;;;10.25;;
64395;SDS011;50717;53.360;6.290;2022-08-19T02:27:34;13.20;;;9.50;;
64395;SDS011;50717;53.360;6.290;2022-08-19T02:30:00;12.68;;;9.90;;
64395;SDS011;50717;53.360;6.290;2022-08-19T02:32:26;14.15;;;10.07;;
64395;SDS011;50717;53.360;6.290;2022-08-19T02:34:52;15.85;;;10.05;;
64395;SDS011;50717;53.360;6.290;2022-08-19T02:40:02;16.38;;;10.70;;
64395;SDS011;50717;53.360;6.290;2022-08-19T02:42:28;16.52;;;10.93;;
64395;SDS011;50717;53.360;6.290;2022-08-19T02:44:55;18.27;;;12.45;;
64395;SDS011;50717;53.360;6.290;2022-08-19T02:47:20;21.10;;;12.93;;
64395;SDS011;50717;53.360;6.290;2022-08-19T02:49:46;12.75;;;9.38;;
64395;SDS011;50717;53.360;6.290;2022-08-19T02:52:14;13.40;;;9.75;;
64395;SDS011;50717;53.360;6.290;2022-08-19T02:57:06;15.55;;;11.55;;
64395;SDS011;50717;53.360;6.290;2022-08-19T02:59:33;18.95;;;12.73;;
64395;SDS011;50717;53.360;6.290;2022-08-19T03:01:59;18.52;;;11.60;;
64395;SDS011;50717;53.360;6.290;2022-08-19T03:04:25;15.98;;;11.50;;
64395;SDS011;50717;53.360;6.290;2022-08-19T03:09:18;17.58;;;12.52;;
64395;SDS011;50717;53.360;6.290;2022-08-19T03:11:44;21.70;;;12.73;;
64395;SDS011;50717;53.360;6.290;2022-08-19T03:14:10;22.08;;;12.75;;
64395;SDS011;50717;53.360;6.290;2022-08-19T03:16:42;24.00;;;13.50;;
64395;SDS011;50717;53.360;6.290;2022-08-19T03:19:13;22.38;;;13.15;;
64395;SDS011;50717;53.360;6.290;2022-08-19T03:21:42;21.00;;;13.50;;
64395;SDS011;50717;53.360;6.290;2022-08-19T03:24:10;22.55;;;13.70;;
64395;SDS011;50717;53.360;6.290;2022-08-19T03:26:40;21.02;;;13.45;;
64395;SDS011;50717;53.360;6.290;2022-08-19T03:29:08;24.80;;;13.80;;
64395;SDS011;50717;53.360;6.290;2022-08-19T03:31:35;20.52;;;13.50;;
64395;SDS011;50717;53.360;6.290;2022-08-19T03:34:02;20.27;;;13.18;;
64395;SDS011;50717;53.360;6.290;2022-08-19T03:36:28;22.13;;;13.73;;
64395;SDS011;50717;53.360;6.290;2022-08-19T03:41:22;20.20;;;13.32;;
64395;SDS011;50717;53.360;6.290;2022-08-19T03:43:56;17.13;;;12.70;;
64395;SDS011;50717;53.360;6.290;2022-08-19T03:46:26;20.52;;;12.35;;
64395;SDS011;50717;53.360;6.290;2022-08-19T03:48:55;22.98;;;12.55;;
64395;SDS011;50717;53.360;6.290;2022-08-19T03:51:31;20.02;;;12.25;;
64395;SDS011;50717;53.360;6.290;2022-08-19T03:54:00;24.98;;;13.23;;
64395;SDS011;50717;53.360;6.290;2022-08-19T03:56:28;20.77;;;11.93;;
64395;SDS011;50717;53.360;6.290;2022-08-19T03:58:55;16.63;;;12.05;;
64395;SDS011;50717;53.360;6.290;2022-08-19T04:01:22;21.30;;;11.52;;
64395;SDS011;50717;53.360;6.290;2022-08-19T04:03:51;18.35;;;11.18;;
64395;SDS011;50717;53.360;6.290;2022-08-19T04:06:19;20.98;;;11.85;;
64395;SDS011;50717;53.360;6.290;2022-08-19T04:08:48;22.67;;;11.85;;
64395;SDS011;50717;53.360;6.290;2022-08-19T04:11:16;21.05;;;11.45;;
64395;SDS011;50717;53.360;6.290;2022-08-19T04:13:46;15.23;;;10.85;;
64395;SDS011;50717;53.360;6.290;2022-08-19T04:16:13;20.08;;;11.95;;
64395;SDS011;50717;53.360;6.290;2022-08-19T04:21:06;18.30;;;11.77;;
64395;SDS011;50717;53.360;6.290;2022-08-19T04:23:33;19.42;;;11.88;;
64395;SDS011;50717;53.360;6.290;2022-08-19T04:26:01;17.50;;;11.63;;
64395;SDS011;50717;53.360;6.290;2022-08-19T04:28:27;18.05;;;11.32;;
64395;SDS011;50717;53.360;6.290;2022-08-19T04:30:54;17.63;;;11.90;;
64395;SDS011;50717;53.360;6.290;2022-08-19T04:33:22;18.52;;;11.82;;
64395;SDS011;50717;53.360;6.290;2022-08-19T04:35:51;21.90;;;13.43;;
64395;SDS011;50717;53.360;6.290;2022-08-19T04:38:18;24.35;;;13.80;;
64395;SDS011;50717;53.360;6.290;2022-08-19T04:40:48;25.38;;;13.90;;
64395;SDS011;50717;53.360;6.290;2022-08-19T04:43:33;25.30;;;14.27;;
64395;SDS011;50717;53.360;6.290;2022-08-19T04:46:04;23.90;;;13.80;;
64395;SDS011;50717;53.360;6.290;2022-08-19T04:48:33;25.48;;;14.55;;
64395;SDS011;50717;53.360;6.290;2022-08-19T04:50:59;24.92;;;14.73;;
64395;SDS011;50717;53.360;6.290;2022-08-19T04:53:25;22.17;;;14.27;;
64395;SDS011;50717;53.360;6.290;2022-08-19T04:55:53;22.38;;;13.02;;
64395;SDS011;50717;53.360;6.290;2022-08-19T04:58:20;26.95;;;14.10;;
64395;SDS011;50717;53.360;6.290;2022-08-19T05:00:45;22.00;;;13.90;;
64395;SDS011;50717;53.360;6.290;2022-08-19T05:03:11;24.77;;;14.35;;
64395;SDS011;50717;53.360;6.290;2022-08-19T05:05:39;25.70;;;14.13;;
64395;SDS011;50717;53.360;6.290;2022-08-19T05:08:06;27.25;;;14.20;;
64395;SDS011;50717;53.360;6.290;2022-08-19T05:13:00;24.75;;;13.57;;
64395;SDS011;50717;53.360;6.290;2022-08-19T05:15:26;22.67;;;12.85;;
64395;SDS011;50717;53.360;6.290;2022-08-19T05:17:51;21.63;;;14.50;;
64395;SDS011;50717;53.360;6.290;2022-08-19T05:20:37;22.73;;;14.52;;
64395;SDS011;50717;53.360;6.290;2022-08-19T05:23:22;21.20;;;13.93;;
64395;SDS011;50717;53.360;6.290;2022-08-19T05:25:48;21.48;;;13.32;;
64395;SDS011;50717;53.360;6.290;2022-08-19T05:28:15;22.67;;;14.25;;
64395;SDS011;50717;53.360;6.290;2022-08-19T05:33:10;21.30;;;13.55;;
64395;SDS011;50717;53.360;6.290;2022-08-19T05:35:37;23.27;;;14.40;;
64395;SDS011;50717;53.360;6.290;2022-08-19T05:38:04;23.20;;;13.55;;
64395;SDS011;50717;53.360;6.290;2022-08-19T05:40:34;23.85;;;14.93;;
64395;SDS011;50717;53.360;6.290;2022-08-19T05:43:04;25.80;;;15.45;;
64395;SDS011;50717;53.360;6.290;2022-08-19T05:45:31;27.08;;;15.15;;
64395;SDS011;50717;53.360;6.290;2022-08-19T05:50:23;25.77;;;14.43;;
64395;SDS011;50717;53.360;6.290;2022-08-19T05:52:51;23.33;;;15.38;;
64395;SDS011;50717;53.360;6.290;2022-08-19T05:55:17;24.90;;;14.90;;
64395;SDS011;50717;53.360;6.290;2022-08-19T05:57:45;23.25;;;14.23;;
64395;SDS011;50717;53.360;6.290;2022-08-19T06:00:12;23.40;;;13.88;;
64395;SDS011;50717;53.360;6.290;2022-08-19T06:02:39;24.48;;;14.32;;
64395;SDS011;50717;53.360;6.290;2022-08-19T06:05:06;26.50;;;14.45;;
64395;SDS011;50717;53.360;6.290;2022-08-19T06:07:34;26.75;;;15.05;;
64395;SDS011;50717;53.360;6.290;2022-08-19T06:10:02;25.58;;;14.65;;
64395;SDS011;50717;53.360;6.290;2022-08-19T06:12:30;24.45;;;15.10;;
64395;SDS011;50717;53.360;6.290;2022-08-19T06:14:59;28.05;;;16.20;;
64395;SDS011;50717;53.360;6.290;2022-08-19T06:17:30;24.83;;;15.15;;
64395;SDS011;50717;53.360;6.290;2022-08-19T06:19:56;26.42;;;15.25;;
64395;SDS011;50717;53.360;6.290;2022-08-19T06:24:47;27.08;;;15.90;;
64395;SDS011;50717;53.360;6.290;2022-08-19T06:27:17;28.33;;;16.85;;
64395;SDS011;50717;53.360;6.290;2022-08-19T06:29:43;31.40;;;17.02;;
64395;SDS011;50717;53.360;6.290;2022-08-19T06:32:12;23.73;;;15.50;;
64395;SDS011;50717;53.360;6.290;2022-08-19T06:34:40;28.08;;;15.98;;
64395;SDS011;50717;53.360;6.290;2022-08-19T06:39:33;26.88;;;16.52;;
64395;SDS011;50717;53.360;6.290;2022-08-19T06:42:01;22.65;;;15.48;;
64395;SDS011;50717;53.360;6.290;2022-08-19T06:44:28;26.52;;;15.00;;
64395;SDS011;50717;53.360;6.290;2022-08-19T06:46:59;24.92;;;15.80;;
64395;SDS011;50717;53.360;6.290;2022-08-19T06:49:27;26.40;;;16.08;;
64395;SDS011;50717;53.360;6.290;2022-08-19T06:51:55;24.02;;;15.05;;
64395;SDS011;50717;53.360;6.290;2022-08-19T06:54:22;27.20;;;15.68;;
64395;SDS011;50717;53.360;6.290;2022-08-19T06:59:16;23.95;;;15.07;;
64395;SDS011;50717;53.360;6.290;2022-08-19T07:01:46;21.38;;;14.75;;
64395;SDS011;50717;53.360;6.290;2022-08-19T07:04:18;22.90;;;14.98;;
64395;SDS011;50717;53.360;6.290;2022-08-19T07:06:49;21.73;;;14.93;;
64395;SDS011;50717;53.360;6.290;2022-08-19T07:09:17;24.30;;;16.10;;
64395;SDS011;50717;53.360;6.290;2022-08-19T07:11:46;23.95;;;15.77;;
64395;SDS011;50717;53.360;6.290;2022-08-19T07:14:14;20.17;;;15.63;;
64395;SDS011;50717;53.360;6.290;2022-08-19T07:16:43;21.88;;;14.90;;
64395;SDS011;50717;53.360;6.290;2022-08-19T07:19:10;21.48;;;16.23;;
64395;SDS011;50717;53.360;6.290;2022-08-19T07:21:36;23.10;;;15.82;;
64395;SDS011;50717;53.360;6.290;2022-08-19T07:24:02;20.65;;;14.77;;
64395;SDS011;50717;53.360;6.290;2022-08-19T07:26:30;22.63;;;15.52;;
64395;SDS011;50717;53.360;6.290;2022-08-19T07:28:58;20.90;;;15.48;;
64395;SDS011;50717;53.360;6.290;2022-08-19T07:31:25;22.50;;;15.35;;
64395;SDS011;50717;53.360;6.290;2022-08-19T07:33:53;23.02;;;14.73;;
64395;SDS011;50717;53.360;6.290;2022-08-19T07:36:24;24.70;;;14.30;;
64395;SDS011;50717;53.360;6.290;2022-08-19T07:38:57;21.40;;;14.73;;
64395;SDS011;50717;53.360;6.290;2022-08-19T07:41:24;19.55;;;14.75;;
64395;SDS011;50717;53.360;6.290;2022-08-19T07:43:51;20.27;;;15.35;;
64395;SDS011;50717;53.360;6.290;2022-08-19T07:46:18;16.55;;;14.40;;
64395;SDS011;50717;53.360;6.290;2022-08-19T07:48:45;20.63;;;13.75;;
64395;SDS011;50717;53.360;6.290;2022-08-19T07:51:14;21.50;;;14.63;;
64395;SDS011;50717;53.360;6.290;2022-08-19T07:53:42;21.08;;;14.43;;
64395;SDS011;50717;53.360;6.290;2022-08-19T07:56:10;21.15;;;14.60;;
64395;SDS011;50717;53.360;6.290;2022-08-19T07:58:38;22.80;;;15.40;;
64395;SDS011;50717;53.360;6.290;2022-08-19T08:01:06;21.00;;;15.00;;
64395;SDS011;50717;53.360;6.290;2022-08-19T08:03:35;21.50;;;15.45;;
64395;SDS011;50717;53.360;6.290;2022-08-19T08:06:20;22.95;;;15.68;;
64395;SDS011;50717;53.360;6.290;2022-08-19T08:09:05;20.95;;;14.90;;
64395;SDS011;50717;53.360;6.290;2022-08-19T08:11:38;20.08;;;15.15;;
64395;SDS011;50717;53.360;6.290;2022-08-19T08:14:05;18.88;;;14.52;;
64395;SDS011;50717;53.360;6.290;2022-08-19T08:16:36;19.45;;;14.75;;
64395;SDS011;50717;53.360;6.290;2022-08-19T08:19:06;18.27;;;15.30;;
64395;SDS011;50717;53.360;6.290;2022-08-19T08:21:32;20.88;;;14.32;;
64395;SDS011;50717;53.360;6.290;2022-08-19T08:23:58;17.88;;;14.25;;
64395;SDS011;50717;53.360;6.290;2022-08-19T08:26:24;19.73;;;14.98;;
64395;SDS011;50717;53.360;6.290;2022-08-19T08:28:51;19.90;;;14.52;;
64395;SDS011;50717;53.360;6.290;2022-08-19T08:31:17;17.05;;;14.35;;
64395;SDS011;50717;53.360;6.290;2022-08-19T08:33:44;22.23;;;14.38;;
64395;SDS011;50717;53.360;6.290;2022-08-19T08:36:11;20.17;;;14.70;;
64395;SDS011;50717;53.360;6.290;2022-08-19T08:38:41;17.70;;;14.88;;
64395;SDS011;50717;53.360;6.290;2022-08-19T08:44:00;20.00;;;15.98;;
64395;SDS011;50717;53.360;6.290;2022-08-19T08:49:33;21.35;;;16.60;;
64395;SDS011;50717;53.360;6.290;2022-08-19T08:52:15;18.98;;;15.10;;
64395;SDS011;50717;53.360;6.290;2022-08-19T08:54:44;20.98;;;16.20;;
64395;SDS011;50717;53.360;6.290;2022-08-19T08:57:15;21.35;;;16.67;;
64395;SDS011;50717;53.360;6.290;2022-08-19T08:59:47;19.27;;;16.05;;
64395;SDS011;50717;53.360;6.290;2022-08-19T09:02:17;19.20;;;15.95;;
64395;SDS011;50717;53.360;6.290;2022-08-19T09:04:43;21.00;;;14.88;;
64395;SDS011;50717;53.360;6.290;2022-08-19T09:07:19;20.25;;;16.02;;
64395;SDS011;50717;53.360;6.290;2022-08-19T09:10:13;18.70;;;15.65;;
64395;SDS011;50717;53.360;6.290;2022-08-19T09:15:22;20.20;;;16.60;;
64395;SDS011;50717;53.360;6.290;2022-08-19T09:17:58;20.63;;;17.10;;
64395;SDS011;50717;53.360;6.290;2022-08-19T09:20:26;19.10;;;16.40;;
64395;SDS011;50717;53.360;6.290;2022-08-19T09:22:52;18.63;;;15.13;;
64395;SDS011;50717;53.360;6.290;2022-08-19T09:25:19;19.98;;;15.90;;
64395;SDS011;50717;53.360;6.290;2022-08-19T09:27:49;19.95;;;15.77;;
64395;SDS011;50717;53.360;6.290;2022-08-19T09:30:25;17.65;;;14.43;;
64395;SDS011;50717;53.360;6.290;2022-08-19T09:32:53;19.80;;;16.02;;
64395;SDS011;50717;53.360;6.290;2022-08-19T09:35:24;20.42;;;15.35;;
64395;SDS011;50717;53.360;6.290;2022-08-19T09:37:51;19.92;;;14.98;;
64395;SDS011;50717;53.360;6.290;2022-08-19T09:40:17;22.58;;;16.30;;
64395;SDS011;50717;53.360;6.290;2022-08-19T09:42:44;20.98;;;16.65;;
64395;SDS011;50717;53.360;6.290;2022-08-19T09:45:12;20.92;;;17.77;;
64395;SDS011;50717;53.360;6.290;2022-08-19T09:47:42;18.27;;;14.85;;
64395;SDS011;50717;53.360;6.290;2022-08-19T09:50:09;20.65;;;16.75;;
64395;SDS011;50717;53.360;6.290;2022-08-19T09:52:36;18.42;;;15.45;;
64395;SDS011;50717;53.360;6.290;2022-08-19T09:55:03;17.77;;;15.88;;
64395;SDS011;50717;53.360;6.290;2022-08-19T09:57:30;20.70;;;15.95;;
64395;SDS011;50717;53.360;6.290;2022-08-19T09:59:55;19.45;;;16.25;;
64395;SDS011;50717;53.360;6.290;2022-08-19T10:02:21;21.27;;;17.13;;
64395;SDS011;50717;53.360;6.290;2022-08-19T10:04:47;20.67;;;17.40;;
64395;SDS011;50717;53.360;6.290;2022-08-19T10:07:31;22.35;;;17.92;;
64395;SDS011;50717;53.360;6.290;2022-08-19T10:09:56;22.63;;;18.45;;
64395;SDS011;50717;53.360;6.290;2022-08-19T10:12:22;23.75;;;19.13;;
64395;SDS011;50717;53.360;6.290;2022-08-19T10:14:48;26.15;;;19.63;;
64395;SDS011;50717;53.360;6.290;2022-08-19T10:17:16;27.92;;;19.48;;
64395;SDS011;50717;53.360;6.290;2022-08-19T10:19:42;22.85;;;17.02;;
64395;SDS011;50717;53.360;6.290;2022-08-19T10:22:08;23.55;;;18.73;;
64395;SDS011;50717;53.360;6.290;2022-08-19T10:24:36;22.48;;;19.30;;
64395;SDS011;50717;53.360;6.290;2022-08-19T10:27:01;25.42;;;19.73;;
64395;SDS011;50717;53.360;6.290;2022-08-19T10:29:29;21.88;;;19.00;;
64395;SDS011;50717;53.360;6.290;2022-08-19T10:31:55;22.02;;;17.83;;
64395;SDS011;50717;53.360;6.290;2022-08-19T10:34:22;19.67;;;17.23;;
64395;SDS011;50717;53.360;6.290;2022-08-19T10:36:48;22.23;;;19.10;;
64395;SDS011;50717;53.360;6.290;2022-08-19T10:39:14;24.60;;;19.63;;
64395;SDS011;50717;53.360;6.290;2022-08-19T10:41:40;19.95;;;17.83;;
64395;SDS011;50717;53.360;6.290;2022-08-19T10:44:10;22.15;;;18.67;;
64395;SDS011;50717;53.360;6.290;2022-08-19T10:46:38;20.75;;;18.08;;
64395;SDS011;50717;53.360;6.290;2022-08-19T10:49:06;27.90;;;20.13;;
64395;SDS011;50717;53.360;6.290;2022-08-19T10:51:33;24.75;;;18.98;;
64395;SDS011;50717;53.360;6.290;2022-08-19T10:54:18;25.77;;;20.65;;
64395;SDS011;50717;53.360;6.290;2022-08-19T10:56:44;20.55;;;18.25;;
64395;SDS011;50717;53.360;6.290;2022-08-19T10:59:16;20.88;;;18.05;;
64395;SDS011;50717;53.360;6.290;2022-08-19T11:01:47;21.75;;;18.77;;
64395;SDS011;50717;53.360;6.290;2022-08-19T11:04:14;22.55;;;18.35;;
64395;SDS011;50717;53.360;6.290;2022-08-19T11:06:43;20.83;;;18.55;;
64395;SDS011;50717;53.360;6.290;2022-08-19T11:09:12;20.65;;;17.55;;
64395;SDS011;50717;53.360;6.290;2022-08-19T11:11:42;22.95;;;19.08;;
64395;SDS011;50717;53.360;6.290;2022-08-19T11:14:09;24.80;;;20.38;;
64395;SDS011;50717;53.360;6.290;2022-08-19T11:16:37;22.27;;;19.88;;
64395;SDS011;50717;53.360;6.290;2022-08-19T11:19:04;23.02;;;19.60;;
64395;SDS011;50717;53.360;6.290;2022-08-19T11:21:33;28.35;;;24.23;;
64395;SDS011;50717;53.360;6.290;2022-08-19T11:24:02;25.92;;;20.92;;
64395;SDS011;50717;53.360;6.290;2022-08-19T11:26:31;28.08;;;21.98;;
64395;SDS011;50717;53.360;6.290;2022-08-19T11:28:57;27.80;;;22.75;;
64395;SDS011;50717;53.360;6.290;2022-08-19T11:31:25;24.80;;;21.65;;
64395;SDS011;50717;53.360;6.290;2022-08-19T11:33:59;31.13;;;24.65;;
64395;SDS011;50717;53.360;6.290;2022-08-19T11:36:28;29.20;;;21.67;;
64395;SDS011;50717;53.360;6.290;2022-08-19T11:38:54;23.73;;;18.73;;
64395;SDS011;50717;53.360;6.290;2022-08-19T11:41:21;25.50;;;20.15;;
64395;SDS011;50717;53.360;6.290;2022-08-19T11:43:48;23.02;;;18.10;;
64395;SDS011;50717;53.360;6.290;2022-08-19T11:46:16;21.10;;;18.40;;
64395;SDS011;50717;53.360;6.290;2022-08-19T11:48:42;26.33;;;19.63;;
64395;SDS011;50717;53.360;6.290;2022-08-19T11:51:12;21.35;;;17.13;;
64395;SDS011;50717;53.360;6.290;2022-08-19T11:53:39;26.50;;;19.63;;
64395;SDS011;50717;53.360;6.290;2022-08-19T11:56:06;24.52;;;18.65;;
64395;SDS011;50717;53.360;6.290;2022-08-19T11:58:33;19.55;;;15.25;;
64395;SDS011;50717;53.360;6.290;2022-08-19T12:00:59;19.52;;;15.20;;
64395;SDS011;50717;53.360;6.290;2022-08-19T12:03:25;18.02;;;14.55;;
64395;SDS011;50717;53.360;6.290;2022-08-19T12:05:51;18.77;;;14.52;;
64395;SDS011;50717;53.360;6.290;2022-08-19T12:08:17;16.45;;;12.63;;
64395;SDS011;50717;53.360;6.290;2022-08-19T12:10:43;14.82;;;12.07;;
64395;SDS011;50717;53.360;6.290;2022-08-19T12:13:10;19.92;;;12.05;;
64395;SDS011;50717;53.360;6.290;2022-08-19T12:15:39;17.20;;;11.63;;
64395;SDS011;50717;53.360;6.290;2022-08-19T12:18:10;22.02;;;12.88;;
64395;SDS011;50717;53.360;6.290;2022-08-19T12:20:39;20.90;;;12.07;;
64395;SDS011;50717;53.360;6.290;2022-08-19T12:23:09;20.95;;;12.57;;
64395;SDS011;50717;53.360;6.290;2022-08-19T12:25:43;19.60;;;15.13;;
64395;SDS011;50717;53.360;6.290;2022-08-19T12:28:17;24.10;;;16.80;;
64395;SDS011;50717;53.360;6.290;2022-08-19T12:30:44;22.33;;;16.50;;
64395;SDS011;50717;53.360;6.290;2022-08-19T12:33:10;23.13;;;16.33;;
64395;SDS011;50717;53.360;6.290;2022-08-19T12:35:41;22.52;;;17.08;;
64395;SDS011;50717;53.360;6.290;2022-08-19T12:38:09;26.73;;;16.92;;
64395;SDS011;50717;53.360;6.290;2022-08-19T12:40:35;25.20;;;17.65;;
64395;SDS011;50717;53.360;6.290;2022-08-19T12:43:01;26.75;;;18.42;;
64395;SDS011;50717;53.360;6.290;2022-08-19T12:45:27;26.30;;;17.63;;
64395;SDS011;50717;53.360;6.290;2022-08-19T12:47:53;30.90;;;17.38;;
64395;SDS011;50717;53.360;6.290;2022-08-19T12:50:19;24.33;;;17.05;;
64395;SDS011;50717;53.360;6.290;2022-08-19T12:52:46;25.75;;;17.08;;
64395;SDS011;50717;53.360;6.290;2022-08-19T12:55:12;28.45;;;16.92;;
64395;SDS011;50717;53.360;6.290;2022-08-19T12:57:39;30.77;;;18.95;;
64395;SDS011;50717;53.360;6.290;2022-08-19T13:00:06;26.60;;;17.13;;
64395;SDS011;50717;53.360;6.290;2022-08-19T13:02:43;30.35;;;18.65;;
64395;SDS011;50717;53.360;6.290;2022-08-19T13:05:14;28.35;;;18.27;;
64395;SDS011;50717;53.360;6.290;2022-08-19T13:07:45;34.42;;;16.75;;
64395;SDS011;50717;53.360;6.290;2022-08-19T13:10:11;21.60;;;14.35;;
64395;SDS011;50717;53.360;6.290;2022-08-19T13:12:40;24.50;;;11.70;;
64395;SDS011;50717;53.360;6.290;2022-08-19T13:15:07;16.10;;;10.00;;
64395;SDS011;50717;53.360;6.290;2022-08-19T13:17:34;11.63;;;8.80;;
64395;SDS011;50717;53.360;6.290;2022-08-19T13:20:00;13.70;;;9.52;;
64395;SDS011;50717;53.360;6.290;2022-08-19T13:22:27;14.90;;;10.13;;
64395;SDS011;50717;53.360;6.290;2022-08-19T13:24:53;17.95;;;10.50;;
64395;SDS011;50717;53.360;6.290;2022-08-19T13:27:18;19.15;;;9.75;;
64395;SDS011;50717;53.360;6.290;2022-08-19T13:29:44;17.58;;;10.80;;
64395;SDS011;50717;53.360;6.290;2022-08-19T13:32:29;19.17;;;11.38;;
64395;SDS011;50717;53.360;6.290;2022-08-19T13:35:13;25.58;;;12.35;;
64395;SDS011;50717;53.360;6.290;2022-08-19T13:37:40;15.40;;;9.68;;
64395;SDS011;50717;53.360;6.290;2022-08-19T13:40:06;14.15;;;9.70;;
64395;SDS011;50717;53.360;6.290;2022-08-19T13:42:36;15.48;;;10.68;;
64395;SDS011;50717;53.360;6.290;2022-08-19T13:45:02;12.23;;;9.60;;
64395;SDS011;50717;53.360;6.290;2022-08-19T13:47:29;12.20;;;9.43;;
64395;SDS011;50717;53.360;6.290;2022-08-19T13:49:55;11.90;;;8.10;;
64395;SDS011;50717;53.360;6.290;2022-08-19T13:52:21;11.00;;;7.72;;
64395;SDS011;50717;53.360;6.290;2022-08-19T13:54:46;13.38;;;8.45;;
64395;SDS011;50717;53.360;6.290;2022-08-19T13:57:13;10.23;;;8.23;;
64395;SDS011;50717;53.360;6.290;2022-08-19T13:59:39;13.38;;;8.52;;
64395;SDS011;50717;53.360;6.290;2022-08-19T14:02:04;12.13;;;8.32;;
64395;SDS011;50717;53.360;6.290;2022-08-19T14:04:30;12.18;;;7.80;;
64395;SDS011;50717;53.360;6.290;2022-08-19T14:06:56;20.23;;;9.88;;
64395;SDS011;50717;53.360;6.290;2022-08-19T14:09:22;13.48;;;9.38;;
64395;SDS011;50717;53.360;6.290;2022-08-19T14:11:47;16.58;;;9.68;;
64395;SDS011;50717;53.360;6.290;2022-08-19T14:14:15;18.88;;;12.38;;
64395;SDS011;50717;53.360;6.290;2022-08-19T14:16:40;19.98;;;12.50;;
64395;SDS011;50717;53.360;6.290;2022-08-19T14:19:06;20.48;;;12.55;;
64395;SDS011;50717;53.360;6.290;2022-08-19T14:21:32;22.48;;;12.73;;
64395;SDS011;50717;53.360;6.290;2022-08-19T14:23:59;19.05;;;12.65;;
64395;SDS011;50717;53.360;6.290;2022-08-19T14:26:25;16.48;;;11.88;;
64395;SDS011;50717;53.360;6.290;2022-08-19T14:28:51;25.33;;;13.63;;
64395;SDS011;50717;53.360;6.290;2022-08-19T14:31:18;21.83;;;13.68;;
64395;SDS011;50717;53.360;6.290;2022-08-19T14:33:45;21.60;;;12.63;;
64395;SDS011;50717;53.360;6.290;2022-08-19T14:36:12;21.55;;;14.23;;
64395;SDS011;50717;53.360;6.290;2022-08-19T14:38:38;20.33;;;15.40;;
64395;SDS011;50717;53.360;6.290;2022-08-19T14:41:08;21.08;;;14.63;;
64395;SDS011;50717;53.360;6.290;2022-08-19T14:43:41;24.77;;;14.57;;
64395;SDS011;50717;53.360;6.290;2022-08-19T14:46:07;23.83;;;15.10;;
64395;SDS011;50717;53.360;6.290;2022-08-19T14:48:35;23.63;;;15.75;;
64395;SDS011;50717;53.360;6.290;2022-08-19T14:51:03;29.42;;;17.17;;
64395;SDS011;50717;53.360;6.290;2022-08-19T14:53:29;24.70;;;15.70;;
64395;SDS011;50717;53.360;6.290;2022-08-19T14:55:55;24.30;;;15.32;;
64395;SDS011;50717;53.360;6.290;2022-08-19T14:58:21;21.60;;;13.27;;
64395;SDS011;50717;53.360;6.290;2022-08-19T15:00:47;22.33;;;14.13;;
64395;SDS011;50717;53.360;6.290;2022-08-19T15:03:13;21.25;;;14.13;;
64395;SDS011;50717;53.360;6.290;2022-08-19T15:05:39;20.42;;;13.82;;
64395;SDS011;50717;53.360;6.290;2022-08-19T15:08:04;20.25;;;12.85;;
64395;SDS011;50717;53.360;6.290;2022-08-19T15:10:30;21.88;;;13.00;;
64395;SDS011;50717;53.360;6.290;2022-08-19T15:12:56;21.00;;;14.25;;
64395;SDS011;50717;53.360;6.290;2022-08-19T15:15:22;23.75;;;13.02;;
64395;SDS011;50717;53.360;6.290;2022-08-19T15:17:48;21.50;;;13.02;;
64395;SDS011;50717;53.360;6.290;2022-08-19T15:20:15;20.27;;;13.65;;
64395;SDS011;50717;53.360;6.290;2022-08-19T15:22:43;18.42;;;12.15;;
64395;SDS011;50717;53.360;6.290;2022-08-19T15:25:09;12.15;;;9.90;;
64395;SDS011;50717;53.360;6.290;2022-08-19T15:27:37;15.88;;;10.10;;
64395;SDS011;50717;53.360;6.290;2022-08-19T15:30:04;12.40;;;8.50;;
64395;SDS011;50717;53.360;6.290;2022-08-19T15:32:32;11.48;;;6.38;;
64395;SDS011;50717;53.360;6.290;2022-08-19T15:34:58;11.00;;;6.35;;